createdAt,value
2022-08-04T00:03:21.048Z,4.20
2022-08-04T00:07:44.752Z,4.30
2022-08-04T00:11:33.667Z,3.70
2022-08-04T00:15:14.920Z,4.50
2022-08-04T00:19:07.047Z,3.80
2022-08-04T00:22:43.991Z,4.40
2022-08-04T00:26:28.101Z,4.10
2022-08-04T00:30:05.359Z,4.60
2022-08-04T00:33:48.543Z,4.40
2022-08-04T00:37:32.363Z,5.10
2022-08-04T00:41:33.069Z,5.20
2022-08-04T00:46:10.503Z,5.20
2022-08-04T00:50:03.567Z,6.00
2022-08-04T00:53:49.894Z,5.90
2022-08-04T00:57:40.277Z,5.60
2022-08-04T01:01:20.030Z,5.80
2022-08-04T01:05:02.358Z,6.50
2022-08-04T01:08:52.827Z,6.90
2022-08-04T01:13:15.405Z,6.10
2022-08-04T01:17:13.009Z,6.50
2022-08-04T01:20:57.183Z,6.00
2022-08-04T01:24:59.867Z,5.60
2022-08-04T01:29:02.575Z,5.40
2022-08-04T01:32:42.805Z,5.80
2022-08-04T01:36:19.007Z,5.80
2022-08-04T01:40:03.522Z,6.20
2022-08-04T01:43:37.303Z,6.30
2022-08-04T01:47:14.852Z,6.10
2022-08-04T01:50:52.831Z,6.50
2022-08-04T01:54:34.336Z,6.50
2022-08-04T01:58:09.062Z,7.00
2022-08-04T02:01:42.582Z,6.50
2022-08-04T02:05:18.565Z,7.10
2022-08-04T02:09:05.136Z,7.00
2022-08-04T02:12:42.914Z,6.40
2022-08-04T02:16:17.908Z,7.10
2022-08-04T02:20:05.760Z,5.80
2022-08-04T02:23:41.810Z,6.70
2022-08-04T02:27:13.008Z,6.40
2022-08-04T02:30:49.241Z,7.50
2022-08-04T02:34:26.623Z,7.30
2022-08-04T02:38:04.973Z,7.20
2022-08-04T02:41:34.437Z,8.00
2022-08-04T02:45:04.583Z,7.80
2022-08-04T02:48:34.361Z,7.40
2022-08-04T02:52:02.335Z,7.50
2022-08-04T02:55:32.086Z,8.00
2022-08-04T02:59:02.601Z,7.50
2022-08-04T03:02:36.597Z,7.50
2022-08-04T03:06:30.150Z,7.90
2022-08-04T03:14:09.624Z,7.40
2022-08-04T03:18:03.450Z,8.60
2022-08-04T03:21:57.005Z,8.40
2022-08-04T03:26:00.443Z,8.60
2022-08-04T03:30:04.184Z,9.10
2022-08-04T03:33:58.529Z,8.50
2022-08-04T03:37:52.742Z,8.30
2022-08-04T03:41:50.880Z,8.90
2022-08-04T03:46:01.401Z,9.60
2022-08-04T03:49:56.247Z,9.50
2022-08-04T03:53:46.177Z,9.00
2022-08-04T03:57:35.265Z,9.10
2022-08-04T04:01:13.373Z,9.60
2022-08-04T04:04:59.609Z,9.90
2022-08-04T04:09:04.780Z,9.40
2022-08-04T04:12:56.097Z,11.00
2022-08-04T04:16:39.942Z,11.10
2022-08-04T04:20:35.555Z,10.70
2022-08-04T04:24:42.709Z,10.90
2022-08-04T04:28:48.647Z,10.30
2022-08-04T04:32:32.954Z,9.90
2022-08-04T04:36:11.052Z,10.70
2022-08-04T04:39:52.229Z,10.60
2022-08-04T04:43:51.543Z,11.10
2022-08-04T04:48:07.132Z,10.30
2022-08-04T04:51:29.797Z,9.90
2022-08-04T04:55:02.106Z,10.20
2022-08-04T04:58:33.557Z,10.00
2022-08-04T05:02:25.979Z,11.40
2022-08-04T05:06:11.275Z,10.80
2022-08-04T05:09:59.922Z,11.00
2022-08-04T05:14:38.230Z,11.20
2022-08-04T05:17:32.033Z,11.20
2022-08-04T05:21:08.748Z,11.20
2022-08-04T05:24:40.271Z,11.00
2022-08-04T05:28:21.386Z,10.70
2022-08-04T05:31:54.773Z,10.80
2022-08-04T05:35:37.347Z,11.60
2022-08-04T05:39:23.145Z,11.60
2022-08-04T05:42:51.989Z,10.90
2022-08-04T05:46:22.719Z,11.50
2022-08-04T05:50:01.257Z,11.20
2022-08-04T05:53:30.983Z,9.90
2022-08-04T05:57:02.804Z,10.10
2022-08-04T06:00:41.124Z,10.40
2022-08-04T06:04:11.540Z,10.90
2022-08-04T06:08:12.753Z,10.70
2022-08-04T06:11:31.048Z,11.40
2022-08-04T06:15:26.657Z,10.10
2022-08-04T06:19:59.847Z,9.90
2022-08-04T06:22:55.809Z,9.40
2022-08-04T06:26:28.124Z,10.10
2022-08-04T06:29:59.661Z,9.60
2022-08-04T06:33:28.270Z,11.00
2022-08-04T06:36:57.417Z,10.50
2022-08-04T06:40:30.868Z,9.30
2022-08-04T06:44:07.307Z,8.80
2022-08-04T06:47:48.303Z,9.00
2022-08-04T06:51:24.503Z,9.00
2022-08-04T06:54:58.658Z,8.60
2022-08-04T06:58:28.094Z,8.50
2022-08-04T07:02:01.463Z,9.40
2022-08-04T07:05:31.930Z,8.50
2022-08-04T07:08:59.985Z,9.20
2022-08-04T07:12:29.900Z,8.70
2022-08-04T07:15:59.757Z,8.80
2022-08-04T07:19:27.689Z,8.00
2022-08-04T07:22:55.873Z,8.50
2022-08-04T07:26:28.959Z,9.60
2022-08-04T07:33:38.814Z,8.40
2022-08-04T07:37:07.772Z,8.40
2022-08-04T07:40:38.133Z,8.90
2022-08-04T07:44:06.982Z,8.60
2022-08-04T07:47:36.924Z,8.80
2022-08-04T07:51:06.545Z,8.70
2022-08-04T07:54:35.465Z,9.30
2022-08-04T07:58:08.169Z,8.10
2022-08-04T08:01:39.448Z,8.60
2022-08-04T08:05:11.333Z,9.90
2022-08-04T08:08:48.755Z,9.70
2022-08-04T08:12:35.502Z,9.10
2022-08-04T08:16:07.738Z,11.20
2022-08-04T08:19:37.706Z,8.50
2022-08-04T08:23:07.409Z,6.40
2022-08-04T08:26:36.753Z,7.00
2022-08-04T08:30:06.242Z,7.70
2022-08-04T08:33:36.053Z,5.70
2022-08-04T08:37:11.949Z,4.90
2022-08-04T08:40:58.663Z,7.30
2022-08-04T08:45:07.028Z,6.20
2022-08-04T08:49:05.651Z,5.00
2022-08-04T08:52:57.667Z,4.90
2022-08-04T08:56:41.602Z,4.50
2022-08-04T09:00:20.727Z,4.50
2022-08-04T09:04:32.678Z,3.40
2022-08-04T09:08:23.190Z,3.20
2022-08-04T09:11:59.609Z,3.50
2022-08-04T09:15:36.914Z,3.80
2022-08-04T09:19:17.670Z,3.80
2022-08-04T09:23:18.244Z,3.00
2022-08-04T09:27:00.071Z,3.00
2022-08-04T09:30:36.522Z,3.80
2022-08-04T09:34:19.204Z,4.00
2022-08-04T09:37:57.021Z,3.90
2022-08-04T09:41:49.668Z,3.50
2022-08-04T09:45:42.268Z,2.90
2022-08-04T09:49:19.714Z,5.80
2022-08-04T09:52:59.069Z,3.50
2022-08-04T09:56:34.551Z,3.40
2022-08-04T10:00:10.730Z,3.70
2022-08-04T10:03:45.217Z,4.00
2022-08-04T10:07:44.005Z,3.80
2022-08-04T10:11:56.324Z,3.40
2022-08-04T10:19:09.788Z,3.50
2022-08-04T10:23:10.660Z,4.10
2022-08-04T10:26:57.232Z,3.30
2022-08-04T10:30:39.017Z,3.40
2022-08-04T10:34:25.298Z,3.20
2022-08-04T10:38:15.741Z,4.20
2022-08-04T10:41:59.975Z,3.90
2022-08-04T10:45:36.678Z,3.50
2022-08-04T10:49:11.384Z,3.70
2022-08-04T10:52:46.502Z,3.60
2022-08-04T10:56:21.976Z,3.30
2022-08-04T11:00:03.689Z,4.10
2022-08-04T11:03:43.943Z,4.00
2022-08-04T11:10:51.890Z,3.90
2022-08-04T11:14:22.279Z,3.90
2022-08-04T11:17:57.878Z,3.90
2022-08-04T11:21:32.863Z,3.40
2022-08-04T11:25:12.546Z,3.40
2022-08-04T11:29:03.767Z,3.70
2022-08-04T11:32:39.918Z,4.40
2022-08-04T11:36:17.542Z,4.00
2022-08-04T11:39:52.353Z,3.80
2022-08-04T11:44:02.542Z,3.40
2022-08-04T11:47:30.752Z,4.10
2022-08-04T11:50:59.804Z,3.80
2022-08-04T11:54:28.244Z,3.80
2022-08-04T11:57:57.898Z,3.70
2022-08-04T12:01:33.269Z,3.70
2022-08-04T12:05:05.602Z,3.40
2022-08-04T12:09:03.364Z,3.70
2022-08-04T12:12:42.565Z,3.70
2022-08-04T12:16:20.046Z,3.60
2022-08-04T12:20:04.532Z,3.60
2022-08-04T12:23:48.899Z,4.00
2022-08-04T12:27:33.202Z,3.50
2022-08-04T12:31:08.501Z,4.00
2022-08-04T12:34:45.361Z,3.50
2022-08-04T12:38:16.049Z,3.40
2022-08-04T12:41:57.681Z,3.90
2022-08-04T12:45:26.912Z,3.00
2022-08-04T12:49:01.247Z,4.30
2022-08-04T12:56:30.852Z,3.30
2022-08-04T13:00:02.833Z,3.90
2022-08-04T13:03:44.995Z,3.10
2022-08-04T13:07:21.390Z,3.10
2022-08-04T13:10:53.223Z,3.20
2022-08-04T13:14:28.176Z,3.60
2022-08-04T13:18:01.841Z,3.20
2022-08-04T13:21:49.809Z,3.10
2022-08-04T13:26:44.616Z,3.50
2022-08-04T13:29:16.344Z,3.20
2022-08-04T13:32:50.055Z,3.90
2022-08-04T13:36:26.274Z,3.20
2022-08-04T13:39:57.460Z,3.20
2022-08-04T13:44:16.175Z,3.40
2022-08-04T13:47:31.035Z,3.30
2022-08-04T13:51:05.335Z,3.60
2022-08-04T13:54:42.472Z,3.60
2022-08-04T13:58:20.788Z,3.30
2022-08-04T14:02:03.201Z,3.30
2022-08-04T14:05:59.686Z,3.30
2022-08-04T14:09:35.211Z,3.20
2022-08-04T14:13:10.842Z,3.40
2022-08-04T14:17:06.533Z,3.90
2022-08-04T14:20:35.469Z,3.30
2022-08-04T14:24:12.177Z,3.10
2022-08-04T14:27:50.442Z,3.30
2022-08-04T14:31:27.865Z,3.60
2022-08-04T14:35:06.258Z,3.00
2022-08-04T14:38:50.413Z,3.50
2022-08-04T14:42:19.063Z,3.40
2022-08-04T14:45:55.645Z,3.40
2022-08-04T14:49:29.864Z,3.60
2022-08-04T14:53:09.276Z,3.40
2022-08-04T14:56:47.448Z,3.30
2022-08-04T15:00:26.389Z,3.50
2022-08-04T15:03:56.138Z,3.30
2022-08-04T15:07:23.700Z,3.80
2022-08-04T15:10:51.180Z,3.30
2022-08-04T15:14:37.604Z,3.30
2022-08-04T15:18:09.849Z,3.50
2022-08-04T15:21:42.978Z,3.50
2022-08-04T15:25:15.610Z,3.60
2022-08-04T15:28:46.586Z,3.70
2022-08-04T15:32:21.978Z,3.80
2022-08-04T15:35:54.743Z,4.00
2022-08-04T15:39:30.941Z,3.70
2022-08-04T15:43:16.961Z,3.90
2022-08-04T15:50:28.489Z,3.70
2022-08-04T15:54:27.708Z,3.50
2022-08-04T15:58:04.659Z,3.80
2022-08-04T16:01:35.702Z,3.80
2022-08-04T16:05:39.942Z,3.60
2022-08-04T16:09:09.365Z,3.80
2022-08-04T16:12:58.834Z,3.70
2022-08-04T16:16:42.599Z,4.10
2022-08-04T16:20:16.844Z,3.80
2022-08-04T16:24:17.651Z,3.90
2022-08-04T16:27:47.412Z,3.90
2022-08-04T16:31:15.687Z,3.80
2022-08-04T16:34:54.762Z,3.70
2022-08-04T16:38:23.824Z,4.00
2022-08-04T16:41:52.918Z,4.10
2022-08-04T16:45:24.005Z,4.10
2022-08-04T16:49:11.620Z,4.70
2022-08-04T16:52:46.907Z,5.00
2022-08-04T16:56:19.540Z,4.90
2022-08-04T16:59:54.716Z,4.60
2022-08-04T17:03:22.740Z,4.50
2022-08-04T17:07:04.053Z,4.30
2022-08-04T17:10:42.498Z,4.90
2022-08-04T17:14:13.132Z,5.40
2022-08-04T17:18:03.859Z,4.80
2022-08-04T17:21:31.508Z,5.40
2022-08-04T17:25:06.885Z,5.10
2022-08-04T17:28:47.334Z,5.20
2022-08-04T17:32:22.305Z,4.60
2022-08-04T17:35:53.493Z,5.60
2022-08-04T17:39:25.763Z,5.30
2022-08-04T17:46:28.508Z,5.40
2022-08-04T17:50:27.104Z,6.30
2022-08-04T17:54:04.663Z,5.70
2022-08-04T17:57:39.045Z,5.70
2022-08-04T18:05:11.690Z,5.50
2022-08-04T18:08:50.178Z,5.60
2022-08-04T18:12:27.930Z,6.70
2022-08-04T18:16:04.564Z,5.80
2022-08-04T18:19:34.405Z,6.20
2022-08-04T18:23:18.748Z,6.00
2022-08-04T18:26:45.995Z,6.00
2022-08-04T18:34:06.987Z,6.20
2022-08-04T18:38:06.082Z,6.10
2022-08-04T18:41:27.849Z,6.40
2022-08-04T18:44:58.654Z,6.90
2022-08-04T18:48:36.302Z,7.00
2022-08-04T18:52:10.181Z,6.90
2022-08-04T18:59:54.426Z,6.40
2022-08-04T19:03:30.462Z,6.60
2022-08-04T19:08:01.396Z,6.10
2022-08-04T19:10:59.613Z,6.40
2022-08-04T19:14:32.859Z,6.90
2022-08-04T19:18:01.726Z,6.60
2022-08-04T19:22:00.074Z,6.60
2022-08-04T19:25:17.165Z,6.20
2022-08-04T19:29:08.453Z,6.80
2022-08-04T19:32:38.824Z,6.80
2022-08-04T19:36:28.882Z,7.10
2022-08-04T19:40:00.537Z,7.10
2022-08-04T19:43:28.420Z,6.40
2022-08-04T19:47:00.517Z,6.00
2022-08-04T19:50:50.651Z,6.70
2022-08-04T19:54:29.162Z,6.40
2022-08-04T19:58:03.054Z,6.90
2022-08-04T20:01:44.062Z,6.60
2022-08-04T20:05:18.550Z,6.80
2022-08-04T20:09:25.275Z,6.80
2022-08-04T20:13:10.462Z,6.50
2022-08-04T20:16:40.988Z,6.20
2022-08-04T20:20:09.650Z,6.80
2022-08-04T20:23:47.953Z,7.10
2022-08-04T20:27:17.300Z,6.10
2022-08-04T20:30:48.180Z,6.20
2022-08-04T20:34:19.023Z,6.10
2022-08-04T20:37:54.987Z,5.30
2022-08-04T20:41:36.777Z,6.20
2022-08-04T20:45:07.090Z,6.10
2022-08-04T20:48:44.740Z,5.50
2022-08-04T20:52:20.559Z,5.90
2022-08-04T20:55:55.054Z,5.90
2022-08-04T20:59:29.377Z,5.50
2022-08-04T21:03:00.813Z,5.20
2022-08-04T21:06:32.185Z,5.40
2022-08-04T21:10:13.849Z,5.30
2022-08-04T21:13:51.871Z,5.40
2022-08-04T21:17:56.693Z,5.10
2022-08-04T21:21:10.194Z,5.30
2022-08-04T21:24:41.772Z,4.90
2022-08-04T21:28:19.186Z,5.00
2022-08-04T21:31:50.331Z,4.90
2022-08-04T21:35:18.702Z,5.00
2022-08-04T21:38:51.072Z,4.70
2022-08-04T21:42:29.325Z,4.90
2022-08-04T21:46:04.730Z,4.40
2022-08-04T21:49:56.766Z,4.80
2022-08-04T21:53:27.751Z,5.00
2022-08-04T21:56:54.908Z,4.40
2022-08-04T22:00:23.919Z,4.70
2022-08-04T22:03:57.103Z,4.30
2022-08-04T22:07:25.855Z,4.40
2022-08-04T22:11:43.920Z,4.70
2022-08-04T22:15:22.765Z,4.20
2022-08-04T22:19:10.843Z,4.40
2022-08-04T22:22:41.840Z,4.30
2022-08-04T22:26:26.541Z,4.00
2022-08-04T22:29:58.173Z,4.30
2022-08-04T22:33:55.538Z,4.50
2022-08-04T22:37:19.680Z,4.30
2022-08-04T22:41:06.977Z,4.10
2022-08-04T22:44:38.030Z,4.70
2022-08-04T22:48:06.593Z,4.20
2022-08-04T22:51:37.545Z,4.00
2022-08-04T22:55:13.275Z,3.80
2022-08-04T22:58:45.230Z,4.40
2022-08-04T23:02:22.719Z,4.20
2022-08-04T23:05:52.543Z,3.80
2022-08-04T23:09:22.252Z,3.90
2022-08-04T23:13:10.961Z,3.90
2022-08-04T23:16:44.039Z,4.10
2022-08-04T23:20:23.521Z,4.20
2022-08-04T23:24:02.732Z,3.80
2022-08-04T23:27:39.022Z,4.00
2022-08-04T23:31:12.526Z,4.00
2022-08-04T23:34:44.886Z,4.00
2022-08-04T23:38:31.093Z,3.60
2022-08-04T23:42:01.659Z,4.10
2022-08-04T23:46:04.185Z,4.10
2022-08-04T23:49:43.482Z,4.70
2022-08-04T23:53:18.629Z,4.10
2022-08-04T23:56:55.397Z,3.80
